Time;durP1;ratioP1;P1;durP2;ratioP2;P2;SDS_P1;SDS_P2;PMS_P1;PMS_P2;Temp;Humidity;BMP_temperature;BMP_pressure;BME280_temperature;BME280_humidity;BME280_pressure;Samples;Min_cycle;Max_cycle;Signal;HPM_P1;HPM_P2
2021/10/22 00:01:17;;;;;;;1.60;1.35;;;1.70;99.90;;;;;;5154786;27;20027;-68
2021/10/22 00:03:43;;;;;;;1.38;1.27;;;1.70;99.90;;;;;;5154766;27;20018;-68
2021/10/22 00:06:08;;;;;;;1.33;1.25;;;1.70;99.90;;;;;;5154765;27;20377;-68
2021/10/22 00:08:34;;;;;;;1.50;1.38;;;1.60;99.90;;;;;;5154654;27;20039;-68
2021/10/22 00:11:00;;;;;;;1.30;1.20;;;1.70;99.90;;;;;;5154478;27;20035;-68
2021/10/22 00:13:26;;;;;;;1.60;1.50;;;1.70;99.90;;;;;;5154396;27;20034;-68
2021/10/22 00:15:52;;;;;;;1.80;1.25;;;1.70;99.90;;;;;;5154521;27;20102;-68
2021/10/22 00:18:20;;;;;;;1.45;1.35;;;1.70;99.90;;;;;;5154569;27;20051;-66
2021/10/22 00:20:46;;;;;;;2.10;1.60;;;1.60;99.90;;;;;;5154274;27;20381;-67
2021/10/22 00:23:12;;;;;;;1.98;1.50;;;1.70;99.90;;;;;;5154139;27;20550;-67
2021/10/22 00:25:37;;;;;;;1.30;1.20;;;1.70;99.90;;;;;;5154270;27;20015;-67
2021/10/22 00:28:03;;;;;;;2.10;1.60;;;1.60;99.90;;;;;;5154197;27;20064;-67
2021/10/22 00:30:29;;;;;;;2.22;1.30;;;1.60;99.90;;;;;;5153898;27;20023;-67
2021/10/22 00:32:55;;;;;;;1.77;1.27;;;1.60;99.90;;;;;;5154020;27;20023;-67
2021/10/22 00:35:21;;;;;;;1.88;1.35;;;1.60;99.90;;;;;;5154316;27;20022;-67
2021/10/22 00:37:46;;;;;;;1.60;1.25;;;1.60;99.90;;;;;;5154031;27;20010;-67
2021/10/22 00:40:13;;;;;;;1.73;1.30;;;1.60;99.90;;;;;;5153950;27;20019;-67
2021/10/22 00:42:40;;;;;;;1.80;1.50;;;1.50;99.90;;;;;;5154030;27;20018;-67
2021/10/22 00:45:08;;;;;;;2.65;1.30;;;1.60;99.90;;;;;;5153397;27;20034;-67
2021/10/22 00:47:34;;;;;;;1.50;1.40;;;1.60;99.90;;;;;;5154119;27;20056;-67
2021/10/22 00:50:00;;;;;;;1.60;1.25;;;1.60;99.90;;;;;;5154096;27;20427;-67
2021/10/22 00:52:28;;;;;;;1.60;1.42;;;1.50;99.90;;;;;;5153703;27;20023;-67
2021/10/22 00:54:57;;;;;;;1.38;1.13;;;1.50;99.90;;;;;;5152597;27;20035;-67
2021/10/22 00:57:22;;;;;;;1.50;1.40;;;1.50;99.90;;;;;;5153963;27;20076;-67
2021/10/22 00:59:48;;;;;;;2.75;1.48;;;1.50;99.90;;;;;;5153653;27;20495;-67
2021/10/22 01:02:15;;;;;;;2.22;1.50;;;1.50;99.90;;;;;;5153450;27;20027;-67
2021/10/22 01:04:41;;;;;;;3.20;1.92;;;1.50;99.90;;;;;;5153768;27;20015;-67
2021/10/22 01:07:07;;;;;;;1.50;1.35;;;1.50;99.90;;;;;;5153606;27;20015;-67
2021/10/22 01:09:33;;;;;;;1.33;1.23;;;1.50;99.90;;;;;;5153740;27;20035;-67
2021/10/22 01:11:59;;;;;;;1.95;1.40;;;1.50;99.90;;;;;;5153757;27;20065;-67
2021/10/22 01:14:26;;;;;;;1.38;1.27;;;1.50;99.90;;;;;;5153545;27;20062;-67
2021/10/22 01:16:52;;;;;;;1.77;1.50;;;1.50;99.90;;;;;;5153540;27;20019;-67
2021/10/22 01:19:18;;;;;;;1.80;1.38;;;1.50;99.90;;;;;;5153626;27;20078;-67
2021/10/22 01:21:47;;;;;;;1.77;1.27;;;1.50;99.90;;;;;;5153430;27;20015;-67
2021/10/22 01:24:15;;;;;;;2.72;1.55;;;1.50;99.90;;;;;;5153648;27;20027;-67
2021/10/22 01:26:42;;;;;;;1.40;1.30;;;1.50;99.90;;;;;;5153722;27;20095;-67
2021/10/22 01:29:08;;;;;;;1.60;1.50;;;1.50;99.90;;;;;;5153313;27;20500;-67
2021/10/22 01:31:34;;;;;;;1.35;1.23;;;1.50;99.90;;;;;;5153543;27;20111;-67
2021/10/22 01:34:00;;;;;;;1.67;1.23;;;1.50;99.90;;;;;;5153578;27;20386;-67
2021/10/22 01:36:26;;;;;;;1.40;1.30;;;1.50;99.90;;;;;;5153600;27;20023;-67
2021/10/22 01:38:53;;;;;;;1.30;1.20;;;1.50;99.90;;;;;;5153452;27;20423;-67
2021/10/22 01:41:19;;;;;;;1.30;1.20;;;1.50;99.90;;;;;;5153145;27;20075;-67
2021/10/22 01:43:46;;;;;;;1.52;1.20;;;1.50;99.90;;;;;;5153501;27;20027;-67
2021/10/22 01:46:12;;;;;;;2.28;1.50;;;1.50;99.90;;;;;;5153190;27;20055;-67
2021/10/22 01:48:38;;;;;;;1.40;1.30;;;1.40;99.90;;;;;;5153340;27;20062;-66
2021/10/22 01:51:05;;;;;;;1.63;1.40;;;1.40;99.90;;;;;;5153463;27;20037;-66
2021/10/22 01:53:31;;;;;;;1.38;1.10;;;1.40;99.90;;;;;;5153104;27;20080;-66
2021/10/22 01:55:57;;;;;;;1.30;1.20;;;1.40;99.90;;;;;;5155374;27;20498;-66
2021/10/22 01:58:23;;;;;;;1.45;1.30;;;1.40;99.90;;;;;;5157064;27;20022;-66
2021/10/22 02:00:50;;;;;;;1.30;1.08;;;1.30;99.90;;;;;;5157145;27;20027;-66
2021/10/22 02:03:16;;;;;;;1.50;1.40;;;1.40;99.90;;;;;;5157070;27;20373;-66
2021/10/22 02:05:41;;;;;;;1.42;0.93;;;1.40;99.90;;;;;;5157080;27;20113;-66
2021/10/22 02:08:08;;;;;;;1.15;1.05;;;1.40;99.90;;;;;;5156775;27;20104;-67
2021/10/22 02:10:34;;;;;;;1.20;1.10;;;1.40;99.90;;;;;;5156678;27;20030;-66
2021/10/22 02:13:00;;;;;;;1.27;1.13;;;1.30;99.90;;;;;;5157091;27;20055;-66
2021/10/22 02:15:26;;;;;;;1.48;1.38;;;1.30;99.90;;;;;;5156627;27;20509;-66
2021/10/22 02:17:52;;;;;;;1.15;1.08;;;1.30;99.90;;;;;;5156688;27;20053;-66
2021/10/22 02:20:19;;;;;;;1.33;1.23;;;1.30;99.90;;;;;;5156755;27;20033;-66
2021/10/22 02:22:45;;;;;;;1.20;1.10;;;1.30;99.90;;;;;;5156878;27;20022;-66
2021/10/22 02:54:15;;;;;;;1.42;1.30;;;1.30;99.90;;;;;;5155807;27;20041;-67
2021/10/22 02:56:40;;;;;;;1.30;1.20;;;1.30;99.90;;;;;;5155893;27;20051;-67
2021/10/22 02:59:06;;;;;;;1.35;1.25;;;1.20;99.90;;;;;;5155814;27;20462;-66
2021/10/22 03:01:32;;;;;;;1.30;1.20;;;1.20;99.90;;;;;;5155973;27;20105;-67
2021/10/22 03:03:58;;;;;;;1.08;1.08;;;1.20;99.90;;;;;;5155783;27;20027;-67
2021/10/22 03:06:25;;;;;;;0.90;0.90;;;1.30;99.90;;;;;;5155193;27;20026;-67
2021/10/22 03:08:51;;;;;;;1.17;1.00;;;1.30;99.90;;;;;;5155685;27;20015;-66
2021/10/22 03:11:17;;;;;;;1.15;1.10;;;1.30;99.90;;;;;;5155650;27;20505;-66
2021/10/22 03:13:42;;;;;;;1.35;1.13;;;1.30;99.90;;;;;;5155693;27;20019;-69
2021/10/22 03:16:08;;;;;;;1.48;1.30;;;1.40;99.90;;;;;;5155493;27;20035;-68
2021/10/22 03:18:34;;;;;;;1.20;1.08;;;1.40;99.90;;;;;;5155470;27;20023;-68
2021/10/22 03:21:00;;;;;;;1.52;1.13;;;1.40;99.90;;;;;;5155325;27;20045;-68
2021/10/22 03:23:25;;;;;;;1.40;1.25;;;1.40;99.90;;;;;;5155414;27;20034;-68
2021/10/22 03:25:52;;;;;;;1.30;1.20;;;1.40;99.90;;;;;;5155454;27;20034;-68
2021/10/22 03:28:18;;;;;;;2.47;1.23;;;1.30;99.90;;;;;;5155318;27;20036;-68
2021/10/22 03:30:44;;;;;;;1.52;1.30;;;1.30;99.90;;;;;;5155206;27;20113;-69
2021/10/22 03:33:09;;;;;;;1.10;1.10;;;1.30;99.90;;;;;;5155315;27;20064;-69
2021/10/22 03:35:35;;;;;;;1.33;1.23;;;1.30;99.90;;;;;;5155204;27;20044;-69
2021/10/22 03:38:01;;;;;;;1.33;1.23;;;1.30;99.90;;;;;;5155266;27;20079;-69
2021/10/22 03:40:27;;;;;;;3.53;1.20;;;1.40;99.90;;;;;;5155085;27;20173;-69
2021/10/22 03:42:54;;;;;;;1.33;1.23;;;1.30;99.90;;;;;;5155311;27;20094;-69
2021/10/22 03:45:20;;;;;;;1.45;1.35;;;1.40;99.90;;;;;;5155080;27;20417;-69
2021/10/22 03:47:45;;;;;;;1.42;1.13;;;1.30;99.90;;;;;;5155143;27;20019;-69
2021/10/22 03:50:17;;;;;;;1.65;1.20;;;1.40;99.90;;;;;;5154708;27;20396;-69
2021/10/22 03:52:43;;;;;;;1.23;1.13;;;1.30;99.90;;;;;;5153545;27;20481;-69
2021/10/22 03:55:09;;;;;;;1.85;1.40;;;1.30;99.90;;;;;;5154522;27;20043;-69
2021/10/22 03:57:35;;;;;;;1.30;1.20;;;1.30;99.90;;;;;;5154688;27;20025;-69
2021/10/22 04:00:03;;;;;;;1.00;1.00;;;1.40;99.90;;;;;;5154596;27;20026;-69
2021/10/22 04:02:28;;;;;;;3.40;1.30;;;1.40;99.90;;;;;;5154602;27;20023;-69
2021/10/22 04:04:54;;;;;;;1.90;1.20;;;1.30;99.90;;;;;;5154707;27;20023;-69
2021/10/22 04:07:20;;;;;;;2.92;1.20;;;1.40;99.90;;;;;;5154430;27;20027;-69
2021/10/22 04:09:46;;;;;;;1.40;1.30;;;1.30;99.90;;;;;;5154459;27;20027;-69
2021/10/22 04:12:11;;;;;;;1.27;1.20;;;1.30;99.90;;;;;;5154308;27;20026;-68
2021/10/22 04:14:37;;;;;;;1.38;1.27;;;1.30;99.90;;;;;;5154496;27;20019;-69
2021/10/22 04:17:03;;;;;;;1.35;1.20;;;1.30;99.90;;;;;;5154165;27;20071;-68
2021/10/22 04:19:29;;;;;;;2.15;1.20;;;1.30;99.90;;;;;;5154244;27;20026;-68
2021/10/22 04:21:55;;;;;;;1.38;1.10;;;1.20;99.90;;;;;;5154547;27;20035;-68
2021/10/22 04:24:22;;;;;;;1.10;1.00;;;1.30;99.90;;;;;;5154177;27;20026;-68
2021/10/22 04:26:48;;;;;;;2.17;1.13;;;1.30;99.90;;;;;;5154196;27;20474;-68
2021/10/22 04:29:14;;;;;;;1.50;1.10;;;1.20;99.90;;;;;;5154263;27;20068;-69
2021/10/22 04:31:40;;;;;;;4.82;1.80;;;1.20;99.90;;;;;;5154485;27;20049;-66
2021/10/22 04:34:06;;;;;;;3.67;1.48;;;1.20;99.90;;;;;;5154060;27;20071;-66
2021/10/22 04:36:32;;;;;;;1.48;1.25;;;1.20;99.90;;;;;;5154107;27;20022;-65
2021/10/22 04:41:42;;;;;;;2.22;1.10;;;1.90;99.90;;;;;;5154100;27;20030;-65
2021/10/22 04:44:08;;;;;;;6.22;2.08;;;3.30;99.90;;;;;;5153343;27;20022;-65
2021/10/22 04:46:34;;;;;;;4.75;1.38;;;2.80;99.90;;;;;;5150160;27;20055;-66
2021/10/22 04:49:00;;;;;;;3.70;1.20;;;2.30;99.90;;;;;;5145095;27;20026;-63
2021/10/22 04:51:25;;;;;;;6.20;1.77;;;2.00;99.90;;;;;;5143298;27;20039;-64
2021/10/22 04:53:51;;;;;;;1.85;1.10;;;1.80;99.90;;;;;;5141852;27;20021;-63
2021/10/22 04:56:17;;;;;;;4.47;1.42;;;1.60;99.90;;;;;;5142833;27;20039;-64
2021/10/22 04:58:45;;;;;;;1.30;1.20;;;1.50;99.90;;;;;;5143343;27;20031;-63
2021/10/22 05:01:12;;;;;;;3.60;1.17;;;1.50;99.90;;;;;;5149764;27;20019;-63
2021/10/22 05:03:37;;;;;;;2.47;1.10;;;1.50;99.90;;;;;;5140664;27;20023;-63
2021/10/22 05:06:03;;;;;;;2.22;1.00;;;1.40;99.90;;;;;;5136909;27;20098;-64
2021/10/22 05:08:29;;;;;;;2.45;1.10;;;1.40;99.90;;;;;;5142565;27;20015;-63
2021/10/22 05:10:55;;;;;;;1.15;1.00;;;1.40;99.90;;;;;;5144300;27;20035;-63
2021/10/22 05:13:22;;;;;;;1.92;1.15;;;1.40;99.90;;;;;;5143117;27;20022;-63
2021/10/22 05:15:48;;;;;;;1.35;1.20;;;1.30;99.90;;;;;;5143276;27;20016;-64
2021/10/22 05:18:13;;;;;;;1.45;1.00;;;1.30;99.90;;;;;;5141333;27;20019;-64
2021/10/22 05:20:39;;;;;;;0.85;0.85;;;1.20;99.90;;;;;;5143331;27;20462;-64
2021/10/22 05:23:05;;;;;;;1.58;1.13;;;1.20;99.90;;;;;;5142899;27;20492;-64
2021/10/22 05:25:31;;;;;;;1.25;1.10;;;1.10;99.90;;;;;;5144486;27;20033;-64
2021/10/22 05:27:56;;;;;;;1.13;1.00;;;1.10;99.90;;;;;;5147500;27;20030;-64
2021/10/22 05:30:22;;;;;;;1.23;1.13;;;1.10;99.90;;;;;;5154416;27;20030;-62
2021/10/22 05:32:48;;;;;;;2.13;1.00;;;1.00;99.90;;;;;;5157444;27;20014;-62
2021/10/22 05:35:14;;;;;;;0.93;0.93;;;1.30;99.90;;;;;;5155984;27;20029;-62
2021/10/22 05:37:40;;;;;;;1.67;0.90;;;1.30;99.90;;;;;;5157621;27;20122;-62
2021/10/22 05:40:08;;;;;;;1.00;0.98;;;1.20;99.90;;;;;;5157169;27;20117;-62
2021/10/22 05:42:34;;;;;;;1.13;1.02;;;1.10;99.90;;;;;;5157125;27;20426;-62
2021/10/22 05:45:00;;;;;;;1.42;1.08;;;1.00;99.90;;;;;;5157259;27;20045;-62
2021/10/22 05:47:26;;;;;;;1.95;1.00;;;1.00;99.90;;;;;;5157320;27;20473;-62
2021/10/22 05:49:51;;;;;;;2.08;1.30;;;1.00;99.90;;;;;;5156662;27;20484;-62
2021/10/22 05:52:17;;;;;;;2.67;1.15;;;1.00;99.90;;;;;;5156943;27;20414;-62
2021/10/22 05:54:44;;;;;;;2.53;1.27;;;0.90;99.90;;;;;;5157038;27;20022;-63
2021/10/22 05:57:10;;;;;;;2.63;1.17;;;1.20;99.90;;;;;;5157007;27;20105;-65
2021/10/22 05:59:35;;;;;;;1.30;1.20;;;1.10;99.90;;;;;;5157095;27;20101;-66
2021/10/22 06:02:01;;;;;;;1.13;1.10;;;1.00;99.90;;;;;;5156871;27;20021;-65
2021/10/22 06:04:27;;;;;;;3.30;1.30;;;1.00;99.90;;;;;;5156694;27;20457;-65
2021/10/22 06:06:53;;;;;;;1.52;1.30;;;0.90;99.90;;;;;;5156912;27;20011;-65
2021/10/22 06:09:18;;;;;;;1.63;1.17;;;0.90;99.90;;;;;;5156618;27;20023;-65
2021/10/22 06:11:44;;;;;;;10.95;3.58;;;0.90;99.90;;;;;;5156760;27;20092;-65
2021/10/22 06:14:10;;;;;;;2.03;1.50;;;0.90;99.90;;;;;;5156533;27;20478;-66
2021/10/22 06:16:36;;;;;;;1.45;1.15;;;0.90;99.90;;;;;;5153288;27;20378;-66
2021/10/22 06:19:03;;;;;;;1.30;1.20;;;0.90;99.90;;;;;;5146645;27;20023;-67
2021/10/22 06:21:52;;;;;;;1.42;1.33;;;0.80;99.90;;;;;;5144126;27;20050;-66
2021/10/22 06:24:18;;;;;;;1.50;1.40;;;0.80;99.90;;;;;;5141969;27;20016;-66
2021/10/22 06:26:44;;;;;;;2.67;1.10;;;0.80;99.90;;;;;;5144360;27;20166;-66
2021/10/22 06:29:11;;;;;;;1.90;1.17;;;0.80;99.90;;;;;;5144109;27;20062;-67
2021/10/22 06:31:38;;;;;;;3.70;1.33;;;0.80;99.90;;;;;;5136198;27;20035;-66
2021/10/22 06:34:05;;;;;;;1.33;1.23;;;0.80;99.90;;;;;;5156216;27;20023;-66
2021/10/22 06:36:32;;;;;;;3.03;1.27;;;0.80;99.90;;;;;;5156243;27;20105;-66
2021/10/22 06:38:58;;;;;;;2.28;1.33;;;0.80;99.90;;;;;;5156177;27;20019;-66
2021/10/22 06:41:24;;;;;;;1.38;1.10;;;0.80;99.90;;;;;;5154843;27;20050;-66
2021/10/22 06:43:50;;;;;;;1.25;1.02;;;0.80;99.90;;;;;;5155854;27;20075;-66
2021/10/22 06:46:16;;;;;;;1.05;0.98;;;0.70;99.90;;;;;;5155880;27;20027;-66
2021/10/22 06:48:43;;;;;;;1.70;1.10;;;0.70;99.90;;;;;;5155890;27;20019;-67
2021/10/22 06:51:10;;;;;;;1.60;1.20;;;0.70;99.90;;;;;;5155718;27;20035;-67
2021/10/22 06:53:36;;;;;;;3.60;1.55;;;0.70;99.90;;;;;;5155860;27;20023;-67
2021/10/22 06:56:04;;;;;;;1.65;1.42;;;1.10;99.90;;;;;;5150396;27;20046;-67
2021/10/22 06:58:29;;;;;;;1.40;1.27;;;1.30;99.90;;;;;;5135062;27;20023;-68
2021/10/22 07:00:55;;;;;;;1.90;1.30;;;1.40;99.90;;;;;;5143111;27;20397;-67
2021/10/22 07:03:25;;;;;;;2.83;1.67;;;1.40;99.90;;;;;;5132275;27;20542;-67
2021/10/22 07:08:20;;;;;;;1.20;1.10;;;1.60;99.90;;;;;;5141329;27;20015;-67
2021/10/22 07:10:46;;;;;;;6.00;1.27;;;1.50;99.90;;;;;;5144254;27;20027;-67
2021/10/22 07:13:12;;;;;;;1.20;1.10;;;1.70;99.90;;;;;;5146168;27;20022;-68
2021/10/22 07:15:37;;;;;;;1.75;1.15;;;1.60;99.90;;;;;;5146557;27;20417;-67
2021/10/22 07:18:04;;;;;;;58.55;10.75;;;1.40;99.90;;;;;;5144477;27;20488;-67
2021/10/22 07:20:31;;;;;;;3.50;1.50;;;1.50;99.90;;;;;;5141220;27;20019;-68
2021/10/22 07:25:32;;;;;;;2.33;1.20;;;1.80;99.90;;;;;;5142385;27;20119;-68
2021/10/22 07:27:59;;;;;;;1.00;1.00;;;1.80;99.90;;;;;;5142825;27;20057;-68
2021/10/22 07:30:25;;;;;;;1.17;1.00;;;1.60;99.90;;;;;;5150172;27;20046;-64
2021/10/22 07:32:51;;;;;;;1.17;1.00;;;1.50;99.90;;;;;;5149067;27;20023;-64
2021/10/22 07:35:17;;;;;;;1.23;1.00;;;1.40;99.90;;;;;;5149718;27;20130;-63
2021/10/22 07:37:43;;;;;;;2.75;1.08;;;1.40;99.90;;;;;;5134556;27;20027;-63
2021/10/22 07:40:10;;;;;;;1.65;1.40;;;1.40;99.90;;;;;;5134619;27;20085;-62
2021/10/22 07:42:36;;;;;;;1.10;1.00;;;2.60;99.90;;;;;;5134234;27;20023;-62
2021/10/22 07:45:05;;;;;;;2.28;1.27;;;2.50;99.90;;;;;;5134243;27;20026;-62
2021/10/22 07:47:35;;;;;;;1.40;1.20;;;2.10;99.90;;;;;;5133942;27;20041;-62
2021/10/22 07:50:04;;;;;;;1.20;1.10;;;1.70;99.90;;;;;;5134020;27;20106;-62
2021/10/22 07:52:30;;;;;;;4.07;1.30;;;1.50;99.90;;;;;;5133482;27;20110;-62
2021/10/22 07:54:59;;;;;;;8.52;2.58;;;1.30;99.90;;;;;;5134060;27;20059;-62
2021/10/22 07:57:29;;;;;;;1.33;1.23;;;1.30;99.90;;;;;;5134155;27;20031;-62
2021/10/22 07:59:58;;;;;;;0.82;0.82;;;1.20;99.90;;;;;;5132701;27;20386;-62
2021/10/22 08:02:25;;;;;;;1.92;1.40;;;1.20;99.90;;;;;;5133776;27;20386;-63
2021/10/22 08:04:52;;;;;;;1.60;1.35;;;1.20;99.90;;;;;;5134142;27;20033;-63
2021/10/22 08:07:30;;;;;;;2.00;1.38;;;1.10;99.90;;;;;;5133701;27;20483;-63
2021/10/22 08:09:59;;;;;;;2.00;1.15;;;1.00;99.90;;;;;;5132421;27;20027;-63
2021/10/22 08:12:25;;;;;;;4.90;2.20;;;1.00;99.90;;;;;;5133658;27;20502;-63
2021/10/22 08:14:51;;;;;;;20.13;6.63;;;1.10;99.90;;;;;;5133576;27;20027;-63
2021/10/22 08:17:18;;;;;;;2.67;1.35;;;1.10;99.90;;;;;;5133520;27;20023;-63
2021/10/22 08:19:50;;;;;;;3.38;1.45;;;1.10;99.90;;;;;;5133569;27;20027;-63
2021/10/22 08:22:26;;;;;;;2.65;1.77;;;1.10;99.90;;;;;;5133466;27;20026;-63
2021/10/22 08:24:53;;;;;;;1.35;0.95;;;1.00;99.90;;;;;;5133666;27;20110;-63
2021/10/22 08:27:19;;;;;;;1.70;1.60;;;1.00;99.90;;;;;;5133519;27;20019;-63
2021/10/22 08:29:45;;;;;;;1.13;0.82;;;1.00;99.90;;;;;;5133318;27;20031;-63
2021/10/22 08:32:11;;;;;;;1.92;0.90;;;1.00;99.90;;;;;;5136610;27;20497;-63
2021/10/22 08:34:37;;;;;;;1.67;1.10;;;1.00;99.90;;;;;;5152092;27;20052;-63
2021/10/22 08:37:03;;;;;;;1.13;1.00;;;1.00;99.90;;;;;;5154344;27;20072;-63
2021/10/22 08:39:29;;;;;;;1.00;0.90;;;1.00;99.90;;;;;;5154202;27;20022;-63
2021/10/22 08:41:58;;;;;;;0.77;0.77;;;1.00;99.90;;;;;;5154391;27;20436;-63
2021/10/22 08:44:27;;;;;;;2.30;1.10;;;1.00;99.90;;;;;;5153770;27;20050;-63
2021/10/22 08:46:54;;;;;;;1.00;0.90;;;1.00;99.90;;;;;;5153851;27;20019;-63
2021/10/22 08:49:20;;;;;;;1.30;1.10;;;1.00;99.90;;;;;;5153648;27;20066;-63
2021/10/22 08:51:46;;;;;;;1.10;1.00;;;1.10;99.90;;;;;;5153830;27;20062;-63
2021/10/22 08:54:12;;;;;;;1.00;1.00;;;1.10;99.90;;;;;;5154079;27;20438;-63
2021/10/22 08:56:42;;;;;;;1.92;1.30;;;1.10;99.90;;;;;;5153524;27;20484;-65
2021/10/22 08:59:09;;;;;;;2.70;1.45;;;1.20;99.90;;;;;;5153682;27;20054;-66
2021/10/22 09:01:35;;;;;;;1.73;1.00;;;4.10;99.90;;;;;;5138137;27;20031;-65
2021/10/22 09:04:01;;;;;;;1.05;0.95;;;5.70;99.90;;;;;;5132643;27;20073;-64
2021/10/22 09:06:27;;;;;;;0.88;0.88;;;4.50;99.90;;;;;;5132451;27;20019;-65
2021/10/22 09:08:58;;;;;;;1.10;1.00;;;3.60;99.90;;;;;;5136168;27;20098;-65
2021/10/22 09:11:30;;;;;;;1.15;1.05;;;2.90;99.90;;;;;;5153432;27;20086;-64
2021/10/22 09:14:09;;;;;;;1.98;1.10;;;2.60;99.90;;;;;;5153592;27;20021;-65
2021/10/22 09:16:48;;;;;;;1.63;1.30;;;2.50;99.90;;;;;;5152244;27;20031;-65
2021/10/22 09:19:35;;;;;;;2.13;1.20;;;2.20;99.90;;;;;;5153688;27;20023;-65
2021/10/22 09:22:29;;;;;;;1.52;1.10;;;2.00;99.90;;;;;;5134819;27;20019;-65
2021/10/22 09:24:58;;;;;;;1.30;1.15;;;1.90;99.90;;;;;;5152167;27;20046;-65
2021/10/22 09:27:54;;;;;;;2.22;1.17;;;1.80;99.90;;;;;;5139056;27;20031;-65
2021/10/22 09:30:45;;;;;;;3.47;1.40;;;1.70;99.90;;;;;;5141392;27;20091;-65
2021/10/22 09:33:10;;;;;;;1.30;1.20;;;1.70;99.90;;;;;;5136274;27;20050;-65
2021/10/22 09:35:38;;;;;;;2.80;1.30;;;1.60;99.90;;;;;;5139510;27;20462;-65
2021/10/22 09:38:07;;;;;;;1.83;1.10;;;1.60;99.90;;;;;;5153587;27;20038;-65
2021/10/22 09:40:34;;;;;;;0.98;0.95;;;1.50;99.90;;;;;;5141636;27;20024;-65
2021/10/22 09:43:21;;;;;;;3.03;1.40;;;1.50;99.90;;;;;;5131618;28;20027;-66
2021/10/22 09:45:49;;;;;;;1.23;1.13;;;1.40;99.90;;;;;;5132946;28;20015;-65
2021/10/22 09:48:26;;;;;;;1.50;1.40;;;1.40;99.90;;;;;;5132809;28;20046;-66
2021/10/22 09:50:53;;;;;;;1.27;1.17;;;1.50;99.90;;;;;;5131509;28;20597;-65
2021/10/22 09:53:25;;;;;;;1.52;1.35;;;1.40;99.90;;;;;;5132610;28;20020;-65
2021/10/22 09:56:06;;;;;;;1.13;1.02;;;1.40;99.90;;;;;;5131185;27;20051;-65
2021/10/22 09:58:35;;;;;;;2.78;1.80;;;1.40;99.90;;;;;;5132429;28;20016;-64
2021/10/22 10:01:11;;;;;;;2.13;1.55;;;1.40;99.90;;;;;;5131252;28;20038;-65
2021/10/22 10:03:39;;;;;;;1.30;1.20;;;1.40;99.90;;;;;;5135064;27;20026;-64
2021/10/22 10:06:09;;;;;;;4.80;2.15;;;1.40;99.90;;;;;;5132427;28;20072;-64
2021/10/22 10:08:40;;;;;;;1.58;1.30;;;1.40;99.90;;;;;;5132269;28;20034;-64
2021/10/22 10:11:08;;;;;;;1.27;1.10;;;1.50;99.90;;;;;;5132069;28;20031;-63
2021/10/22 10:13:35;;;;;;;1.65;1.48;;;1.50;99.90;;;;;;5130473;28;20023;-63
2021/10/22 10:16:09;;;;;;;1.20;1.10;;;1.50;99.90;;;;;;5132844;27;20030;-64
2021/10/22 10:18:47;;;;;;;2.08;1.58;;;1.50;99.90;;;;;;5135526;27;20072;-63
2021/10/22 10:21:16;;;;;;;1.20;1.10;;;1.50;99.90;;;;;;5136082;27;20486;-64
2021/10/22 10:23:43;;;;;;;1.40;1.30;;;1.50;99.90;;;;;;5135823;27;20098;-65
2021/10/22 10:26:31;;;;;;;1.52;1.17;;;1.60;99.90;;;;;;5143403;27;20066;-65
2021/10/22 10:28:58;;;;;;;1.23;1.02;;;1.50;99.90;;;;;;5156161;27;20481;-66
2021/10/22 10:31:44;;;;;;;0.93;0.90;;;1.50;99.90;;;;;;5156360;27;20038;-66
2021/10/22 10:34:31;;;;;;;1.65;1.30;;;2.00;99.90;;;;;;5156306;27;20549;-66
2021/10/22 10:37:02;;;;;;;1.38;1.27;;;2.30;99.90;;;;;;5156010;27;20023;-66
2021/10/22 10:39:43;;;;;;;19.80;3.50;;;2.70;99.90;;;;;;5156026;27;20057;-66
2021/10/22 10:42:39;;;;;;;0.90;0.90;;;2.40;99.90;;;;;;5156111;27;20053;-66
2021/10/22 10:45:26;;;;;;;2.60;1.30;;;2.70;99.90;;;;;;5156069;27;20022;-66
2021/10/22 10:47:55;;;;;;;2.22;1.15;;;2.70;99.90;;;;;;5156167;27;20018;-66
2021/10/22 10:50:43;;;;;;;2.28;1.27;;;2.70;99.90;;;;;;5155652;27;20031;-66
2021/10/22 10:53:14;;;;;;;1.23;1.13;;;2.70;99.90;;;;;;5156073;27;20026;-66
2021/10/22 10:55:46;;;;;;;1.25;1.15;;;2.80;99.90;;;;;;5155715;27;20083;-66
2021/10/22 10:58:11;;;;;;;3.25;1.40;;;2.60;99.90;;;;;;5155872;27;20055;-66
2021/10/22 11:00:51;;;;;;;2.05;1.17;;;2.80;99.90;;;;;;5155564;27;20102;-66
2021/10/22 11:03:41;;;;;;;1.27;1.17;;;2.80;99.90;;;;;;5155821;27;20026;-67
2021/10/22 11:06:07;;;;;;;1.43;1.07;;;2.80;99.90;;;;;;5155938;27;20086;-67
2021/10/22 11:08:33;;;;;;;1.15;0.98;;;2.80;99.90;;;;;;5136604;27;20015;-67
2021/10/22 11:13:48;;;;;;;1.85;1.15;;;2.30;99.90;;;;;;5134887;27;20476;-67
2021/10/22 11:16:29;;;;;;;0.88;0.88;;;2.20;99.90;;;;;;5135369;27;20028;-68
2021/10/22 11:19:04;;;;;;;9.32;2.25;;;2.10;99.90;;;;;;5133689;27;20027;-68
2021/10/22 11:21:33;;;;;;;1.20;1.10;;;2.00;99.90;;;;;;5133636;27;20026;-67
2021/10/22 11:24:02;;;;;;;1.83;1.10;;;2.00;99.90;;;;;;5134866;27;20088;-69
2021/10/22 11:26:29;;;;;;;1.20;0.98;;;2.00;99.90;;;;;;5134925;27;20093;-68
2021/10/22 11:28:57;;;;;;;1.30;1.20;;;1.90;99.90;;;;;;5140237;27;20122;-68
2021/10/22 11:31:56;;;;;;;1.30;1.20;;;1.80;99.90;;;;;;5138395;27;20118;-68
2021/10/22 11:34:25;;;;;;;2.58;1.10;;;1.80;99.90;;;;;;5125830;27;20370;-68
2021/10/22 11:37:04;;;;;;;1.20;1.10;;;1.70;99.90;;;;;;5132884;27;20066;-68
2021/10/22 11:39:37;;;;;;;1.00;0.90;;;1.70;99.90;;;;;;5133130;27;20030;-64
2021/10/22 11:42:24;;;;;;;1.50;1.10;;;1.80;99.90;;;;;;5134614;27;20478;-64
2021/10/22 11:44:54;;;;;;;3.05;1.20;;;2.80;99.90;;;;;;5134568;27;20034;-65
2021/10/22 11:47:22;;;;;;;2.38;1.15;;;3.30;99.90;;;;;;5134495;27;20044;-64
2021/10/22 11:49:48;;;;;;;1.67;0.98;;;2.90;99.90;;;;;;5132767;27;20130;-66
2021/10/22 11:52:18;;;;;;;2.25;1.80;;;2.50;99.90;;;;;;5134268;27;20489;-65
2021/10/22 11:54:50;;;;;;;1.75;1.38;;;3.30;99.90;;;;;;5134110;27;20019;-64
2021/10/22 11:57:21;;;;;;;1.33;1.10;;;4.10;99.90;;;;;;5134483;27;20039;-65
2021/10/22 11:59:56;;;;;;;1.25;1.15;;;4.00;99.90;;;;;;5132561;27;20051;-64
2021/10/22 12:02:27;;;;;;;1.23;1.13;;;3.60;99.90;;;;;;5133952;27;20020;-64
2021/10/22 12:04:56;;;;;;;1.27;1.15;;;3.20;99.90;;;;;;5134151;27;20364;-65
2021/10/22 12:07:22;;;;;;;1.23;1.08;;;2.80;99.90;;;;;;5132485;27;20102;-64
2021/10/22 12:09:52;;;;;;;1.52;1.20;;;2.60;99.90;;;;;;5133645;27;20494;-63
2021/10/22 12:12:18;;;;;;;2.88;1.40;;;2.50;99.90;;;;;;5134057;27;20034;-65
2021/10/22 12:14:50;;;;;;;1.92;1.20;;;2.70;99.90;;;;;;5133412;27;20402;-65
2021/10/22 12:17:18;;;;;;;3.38;1.33;;;3.40;99.90;;;;;;5133614;27;20570;-63
2021/10/22 12:19:45;;;;;;;2.95;1.25;;;4.00;99.90;;;;;;5133309;27;20034;-65
2021/10/22 12:22:20;;;;;;;1.52;1.05;;;3.50;99.90;;;;;;5134677;27;20054;-66
2021/10/22 12:24:52;;;;;;;1.35;0.95;;;3.10;99.90;;;;;;5133422;27;20046;-66
2021/10/22 12:27:19;;;;;;;2.47;1.38;;;2.70;99.90;;;;;;5133794;27;20039;-64
2021/10/22 12:29:53;;;;;;;1.85;1.20;;;2.50;99.90;;;;;;5133223;27;20110;-64
2021/10/22 12:32:31;;;;;;;1.23;1.13;;;2.30;99.90;;;;;;5133315;27;20023;-64
2021/10/22 12:34:57;;;;;;;1.10;1.00;;;2.20;99.90;;;;;;5143431;27;20063;-64
2021/10/22 12:37:38;;;;;;;1.73;1.10;;;2.20;99.90;;;;;;5141961;27;20108;-64
2021/10/22 12:40:18;;;;;;;1.83;1.30;;;2.00;99.90;;;;;;5133313;27;20019;-65
2021/10/22 12:42:45;;;;;;;2.83;1.25;;;2.00;99.90;;;;;;5134439;27;20019;-64
2021/10/22 12:45:26;;;;;;;3.72;1.50;;;2.10;99.90;;;;;;5149040;27;20489;-64
2021/10/22 12:47:52;;;;;;;1.48;1.27;;;2.10;99.90;;;;;;5153936;27;20522;-63
2021/10/22 12:50:26;;;;;;;1.98;1.20;;;2.00;99.90;;;;;;5154116;27;20126;-64
2021/10/22 12:52:59;;;;;;;1.23;1.08;;;2.00;99.90;;;;;;5153899;27;20027;-64
2021/10/22 12:55:27;;;;;;;1.30;1.20;;;2.00;99.90;;;;;;5153616;27;20086;-64
2021/10/22 12:58:17;;;;;;;1.98;1.25;;;2.00;99.90;;;;;;5153700;27;20042;-64
2021/10/22 13:00:44;;;;;;;1.42;1.33;;;2.00;99.90;;;;;;5153906;27;20075;-64
2021/10/22 13:03:11;;;;;;;1.20;1.10;;;1.90;99.90;;;;;;5153778;27;20462;-64
2021/10/22 13:05:38;;;;;;;1.65;1.27;;;1.90;99.90;;;;;;5153530;27;20355;-64
2021/10/22 13:10:53;;;;;;;2.10;1.50;;;1.80;99.90;;;;;;5153544;27;20031;-64
2021/10/22 13:21:45;;;;;;;2.15;1.30;;;1.70;99.90;;;;;;5153838;27;20038;-63
2021/10/22 13:24:11;;;;;;;2.53;1.58;;;1.80;99.90;;;;;;5153662;27;20034;-64
2021/10/22 13:26:38;;;;;;;1.58;1.40;;;1.80;99.90;;;;;;5143486;27;20098;-64
2021/10/22 13:29:04;;;;;;;1.45;1.20;;;1.80;99.90;;;;;;5132947;27;20374;-63
2021/10/22 13:31:30;;;;;;;2.22;1.27;;;1.80;99.90;;;;;;5144528;27;20083;-63
2021/10/22 13:33:56;;;;;;;2.97;1.40;;;1.70;99.90;;;;;;5142132;27;20023;-64
2021/10/22 13:36:22;;;;;;;3.78;1.45;;;1.70;99.90;;;;;;5129865;27;20067;-63
2021/10/22 13:38:48;;;;;;;2.33;1.45;;;1.70;99.90;;;;;;5133550;27;20015;-63
2021/10/22 13:41:17;;;;;;;1.48;1.35;;;1.70;99.90;;;;;;5126851;28;20471;-63
2021/10/22 13:43:43;;;;;;;1.52;1.40;;;1.70;99.90;;;;;;5117929;28;20020;-63
2021/10/22 13:46:09;;;;;;;1.92;1.55;;;1.80;99.90;;;;;;5121258;28;20027;-63
2021/10/22 13:48:36;;;;;;;2.78;1.75;;;1.70;99.90;;;;;;5123908;28;20030;-63
2021/10/22 13:51:02;;;;;;;1.40;1.25;;;1.70;99.90;;;;;;5118684;27;20043;-63
2021/10/22 13:53:29;;;;;;;1.23;1.13;;;1.70;99.90;;;;;;5133447;27;20023;-63
2021/10/22 13:55:54;;;;;;;1.52;1.40;;;1.60;99.90;;;;;;5126205;27;20539;-63